Station Historical Data
Daily Summary for April 13, 2012 Units:  Both    English   Metric
« Previous Day
Next Day »
Daily Weekly Monthly Yearly Custom
  High: Low: Average:
Temperature: 72.6 °F /  22.6 °C 41.3 °F /  5.2 °C 57.5 °F /  14.2 °C
Dew Point: 46.9 °F /  8.3 °C 33.8 °F /  1 °C 39.9 °F /  4.4 °C
Humidity: 84% 30% 55%
Wind Speed: 9.0mph /  14.5km/h - 2.2mph /  3.5km/h
Wind Gust: 12.0mph /  19.3km/h - -
Wind- - ESE
Pressure: 30.19 in /  1022.2 hPa 30.09 in /  1018.8 hPa -
Precipitation: 0.00 in /  0 mm    
Historical Graphs
 
 
Tabular Data for April 13, 2012
Time Temperature Dew Point Pressure Wind Wind Speed Wind Gust Humidity Rainfall Rate (Hourly) Conditions
00:00 44.7 °F /  7.1 °C 36.2 °F /  2.3 °C 30.15in /  1020.9hPa Calm     72% 0.00in /  0mm
00:01 44.5 °F /  6.9 °C 36.0 °F /  2.2 °C 30.15in /  1020.9hPa Calm     72% 0.00in /  0mm
00:02 44.3 °F /  6.8 °C 35.9 °F /  2.2 °C 30.15in /  1020.9hPa Calm     72% 0.00in /  0mm
00:07 43.9 °F /  6.6 °C 36.8 °F /  2.7 °C 30.15in /  1020.9hPa Calm     76% 0.00in /  0mm
00:12 43.6 °F /  6.4 °C 36.2 °F /  2.3 °C 30.15in /  1020.9hPa Calm     75% 0.00in /  0mm
00:14 43.5 °F /  6.4 °C 36.1 °F /  2.3 °C 30.15in /  1020.9hPa Calm     75% 0.00in /  0mm
00:19 43.2 °F /  6.2 °C 36.2 °F /  2.3 °C 30.15in /  1020.9hPa Calm     76% 0.00in /  0mm
00:24 43.4 °F /  6.3 °C 35.7 °F /  2.1 °C 30.14in /  1020.5hPa Calm     74% 0.00in /  0mm
00:29 43.2 °F /  6.2 °C 34.5 °F /  1.4 °C 30.14in /  1020.5hPa Calm     71% 0.00in /  0mm
00:34 42.9 °F /  6.1 °C 34.5 °F /  1.4 °C 30.14in /  1020.5hPa Calm     72% 0.00in /  0mm
00:39 44.1 °F /  6.7 °C 34.6 °F /  1.4 °C 30.14in /  1020.5hPa Calm     69% 0.00in /  0mm
00:44 45.0 °F /  7.2 °C 34.7 °F /  1.5 °C 30.14in /  1020.5hPa Calm     67% 0.00in /  0mm
00:49 44.9 °F /  7.2 °C 34.2 °F /  1.2 °C 30.14in /  1020.5hPa Calm     66% 0.00in /  0mm
00:50 44.8 °F /  7.1 °C 34.2 °F /  1.2 °C 30.14in /  1020.5hPa Calm     66% 0.00in /  0mm
00:55 44.5 °F /  6.9 °C 34.2 °F /  1.2 °C 30.14in /  1020.5hPa Calm     67% 0.00in /  0mm
01:00 45.6 °F /  7.6 °C 34.5 °F /  1.4 °C 30.14in /  1020.5hPa Calm     65% 0.00in /  0mm
01:05 46.2 °F /  7.9 °C 34.3 °F /  1.3 °C 30.14in /  1020.5hPa Calm     63% 0.00in /  0mm
01:10 47.1 °F /  8.4 °C 34.4 °F /  1.3 °C 30.13in /  1020.2hPa Calm   1.0mph /  1.6km/h 61% 0.00in /  0mm
01:15 47.5 °F /  8.6 °C 33.9 °F /  1.1 °C 30.13in /  1020.2hPa Calm     59% 0.00in /  0mm
01:20 47.9 °F /  8.8 °C 33.8 °F /  1 °C 30.13in /  1020.2hPa Calm   1.0mph /  1.6km/h 58% 0.00in /  0mm
01:25 48.0 °F /  8.9 °C 33.9 °F /  1.1 °C 30.13in /  1020.2hPa Calm     58% 0.00in /  0mm
01:30 47.3 °F /  8.5 °C 34.1 °F /  1.2 °C 30.13in /  1020.2hPa Calm     60% 0.00in /  0mm
01:35 46.4 °F /  8 °C 36.0 °F /  2.2 °C 30.13in /  1020.2hPa Calm     67% 0.00in /  0mm
01:40 45.4 °F /  7.4 °C 36.6 °F /  2.6 °C 30.13in /  1020.2hPa NE 1.0mph /  1.6km/h 1.0mph /  1.6km/h 71% 0.00in /  0mm
01:45 44.8 °F /  7.1 °C 36.0 °F /  2.2 °C 30.13in /  1020.2hPa Calm   1.0mph /  1.6km/h 71% 0.00in /  0mm
01:50 44.1 °F /  6.7 °C 36.4 °F /  2.4 °C 30.13in /  1020.2hPa Calm     74% 0.00in /  0mm
01:55 43.3 °F /  6.3 °C 36.3 °F /  2.4 °C 30.13in /  1020.2hPa Calm   1.0mph /  1.6km/h 76% 0.00in /  0mm
02:00 42.7 °F /  5.9 °C 36.0 °F /  2.2 °C 30.12in /  1019.9hPa NE 2.0mph /  3.2km/h 2.0mph /  3.2km/h 77% 0.00in /  0mm
02:03 42.8 °F /  6 °C 36.1 °F /  2.3 °C 30.12in /  1019.9hPa Calm   2.0mph /  3.2km/h 77% 0.00in /  0mm
02:08 42.8 °F /  6 °C 36.8 °F /  2.7 °C 30.12in /  1019.9hPa Calm   1.0mph /  1.6km/h 79% 0.00in /  0mm
02:14 42.6 °F /  5.9 °C 36.5 °F /  2.5 °C 30.12in /  1019.9hPa Calm     79% 0.00in /  0mm
02:19 42.4 °F /  5.8 °C 36.4 °F /  2.4 °C 30.12in /  1019.9hPa NE 1.0mph /  1.6km/h 1.0mph /  1.6km/h 79% 0.00in /  0mm
02:24 42.5 °F /  5.8 °C 36.5 °F /  2.5 °C 30.12in /  1019.9hPa NE 1.0mph /  1.6km/h 2.0mph /  3.2km/h 79% 0.00in /  0mm
02:29 42.3 °F /  5.7 °C 36.6 °F /  2.6 °C 30.12in /  1019.9hPa NE 1.0mph /  1.6km/h 1.0mph /  1.6km/h 80% 0.00in /  0mm
02:34 42.4 °F /  5.8 °C 36.7 °F /  2.6 °C 30.12in /  1019.9hPa Calm   2.0mph /  3.2km/h 80% 0.00in /  0mm
02:39 42.2 °F /  5.7 °C 37.1 °F /  2.8 °C 30.12in /  1019.9hPa Calm   1.0mph /  1.6km/h 82% 0.00in /  0mm
02:44 42.0 °F /  5.6 °C 37.2 °F /  2.9 °C 30.12in /  1019.9hPa NNE 1.0mph /  1.6km/h 1.0mph /  1.6km/h 83% 0.00in /  0mm
02:50 41.9 °F /  5.5 °C 37.1 °F /  2.8 °C 30.12in /  1019.9hPa NNE 2.0mph /  3.2km/h 2.0mph /  3.2km/h 83% 0.00in /  0mm
02:55 42.3 °F /  5.7 °C 37.5 °F /  3.1 °C 30.12in /  1019.9hPa NE 2.0mph /  3.2km/h 2.0mph /  3.2km/h 83% 0.00in /  0mm
03:00 42.5 °F /  5.8 °C 37.4 °F /  3 °C 30.12in /  1019.9hPa Calm   1.0mph /  1.6km/h 82% 0.00in /  0mm
03:05 42.2 °F /  5.7 °C 37.4 °F /  3 °C 30.12in /  1019.9hPa Calm     83% 0.00in /  0mm
03:10 42.0 °F /  5.6 °C 37.5 °F /  3.1 °C 30.12in /  1019.9hPa Calm   1.0mph /  1.6km/h 84% 0.00in /  0mm
03:15 42.2 °F /  5.7 °C 37.4 °F /  3 °C 30.12in /  1019.9hPa NE 1.0mph /  1.6km/h 1.0mph /  1.6km/h 83% 0.00in /  0mm
03:20 42.4 °F /  5.8 °C 37.6 °F /  3.1 °C 30.12in /  1019.9hPa Calm   1.0mph /  1.6km/h 83% 0.00in /  0mm
03:25 42.3 °F /  5.7 °C 37.2 °F /  2.9 °C 30.12in /  1019.9hPa NE 1.0mph /  1.6km/h 1.0mph /  1.6km/h 82% 0.00in /  0mm
03:30 42.0 °F /  5.6 °C 36.9 °F /  2.7 °C 30.12in /  1019.9hPa Calm   2.0mph /  3.2km/h 82% 0.00in /  0mm
03:35 41.6 °F /  5.3 °C 36.5 °F /  2.5 °C 30.13in /  1020.2hPa Calm     82% 0.00in /  0mm
03:40 41.3 °F /  5.2 °C 36.8 °F /  2.7 °C 30.13in /  1020.2hPa Calm     84% 0.00in /  0mm
03:45 41.5 °F /  5.3 °C 37.0 °F /  2.8 °C 30.13in /  1020.2hPa Calm   1.0mph /  1.6km/h 84% 0.00in /  0mm
03:50 41.6 °F /  5.3 °C 36.5 °F /  2.5 °C 30.13in /  1020.2hPa Calm     82% 0.00in /  0mm
03:55 42.1 °F /  5.6 °C 36.4 °F /  2.4 °C 30.13in /  1020.2hPa Calm     80% 0.00in /  0mm
04:00 42.1 °F /  5.6 °C 36.1 °F /  2.3 °C 30.13in /  1020.2hPa Calm     79% 0.00in /  0mm
04:05 42.0 °F /  5.6 °C 36.0 °F /  2.2 °C 30.13in /  1020.2hPa Calm     79% 0.00in /  0mm
04:10 42.0 °F /  5.6 °C 35.7 °F /  2.1 °C 30.13in /  1020.2hPa Calm     78% 0.00in /  0mm
04:15 42.6 °F /  5.9 °C 35.9 °F /  2.2 °C 30.13in /  1020.2hPa Calm   1.0mph /  1.6km/h 77% 0.00in /  0mm
04:21 42.5 °F /  5.8 °C 35.8 °F /  2.1 °C 30.13in /  1020.2hPa Calm     77% 0.00in /  0mm
04:24 42.6 °F /  5.9 °C 35.6 °F /  2 °C 30.13in /  1020.2hPa NNE 1.0mph /  1.6km/h 1.0mph /  1.6km/h 76% 0.00in /  0mm
04:29 43.5 °F /  6.4 °C 36.1 °F /  2.3 °C 30.13in /  1020.2hPa Calm   1.0mph /  1.6km/h 75% 0.00in /  0mm
04:34 43.7 °F /  6.5 °C 36.0 °F /  2.2 °C 30.13in /  1020.2hPa Calm     74% 0.00in /  0mm
04:39 43.8 °F /  6.6 °C 36.1 °F /  2.3 °C 30.13in /  1020.2hPa Calm     74% 0.00in /  0mm
04:45 43.0 °F /  6.1 °C 36.6 °F /  2.6 °C 30.13in /  1020.2hPa NNE 1.0mph /  1.6km/h 1.0mph /  1.6km/h 78% 0.00in /  0mm
04:50 42.0 °F /  5.6 °C 36.6 °F /  2.6 °C 30.13in /  1020.2hPa Calm   1.0mph /  1.6km/h 81% 0.00in /  0mm
04:55 42.1 °F /  5.6 °C 36.1 °F /  2.3 °C 30.13in /  1020.2hPa NNE 1.0mph /  1.6km/h 2.0mph /  3.2km/h 79% 0.00in /  0mm
05:00 42.8 °F /  6 °C 36.4 °F /  2.4 °C 30.13in /  1020.2hPa Calm   2.0mph /  3.2km/h 78% 0.00in /  0mm
05:05 42.6 °F /  5.9 °C 36.2 °F /  2.3 °C 30.13in /  1020.2hPa Calm     78% 0.00in /  0mm
05:10 42.0 °F /  5.6 °C 36.0 °F /  2.2 °C 30.14in /  1020.5hPa Calm     79% 0.00in /  0mm
05:15 41.3 °F /  5.2 °C 35.6 °F /  2 °C 30.14in /  1020.5hPa NNE 1.0mph /  1.6km/h 1.0mph /  1.6km/h 80% 0.00in /  0mm
05:20 41.5 °F /  5.3 °C 35.8 °F /  2.1 °C 30.14in /  1020.5hPa NE 1.0mph /  1.6km/h 2.0mph /  3.2km/h 80% 0.00in /  0mm
05:25 42.1 °F /  5.6 °C 36.4 °F /  2.4 °C 30.14in /  1020.5hPa NE 3.0mph /  4.8km/h 4.0mph /  6.4km/h 80% 0.00in /  0mm
05:31 42.8 °F /  6 °C 36.4 °F /  2.4 °C 30.14in /  1020.5hPa NE 4.0mph /  6.4km/h 4.0mph /  6.4km/h 78% 0.00in /  0mm
05:36 43.2 °F /  6.2 °C 36.5 °F /  2.5 °C 30.14in /  1020.5hPa NE 2.0mph /  3.2km/h 4.0mph /  6.4km/h 77% 0.00in /  0mm
05:42 43.2 °F /  6.2 °C 36.5 °F /  2.5 °C 30.14in /  1020.5hPa NE 1.0mph /  1.6km/h 2.0mph /  3.2km/h 77% 0.00in /  0mm
05:47 43.3 °F /  6.3 °C 36.6 °F /  2.6 °C 30.14in /  1020.5hPa NE 2.0mph /  3.2km/h 2.0mph /  3.2km/h 77% 0.00in /  0mm
05:53 43.3 °F /  6.3 °C 36.6 °F /  2.6 °C 30.14in /  1020.5hPa ENE 2.0mph /  3.2km/h 2.0mph /  3.2km/h 77% 0.00in /  0mm
05:58 43.5 °F /  6.4 °C 36.5 °F /  2.5 °C 30.14in /  1020.5hPa NE 1.0mph /  1.6km/h 2.0mph /  3.2km/h 76% 0.00in /  0mm
06:03 43.4 °F /  6.3 °C 36.7 °F /  2.6 °C 30.14in /  1020.5hPa NE 2.0mph /  3.2km/h 2.0mph /  3.2km/h 77% 0.00in /  0mm
06:08 43.2 °F /  6.2 °C 36.8 °F /  2.7 °C 30.15in /  1020.9hPa Calm   2.0mph /  3.2km/h 78% 0.00in /  0mm
06:13 43.2 °F /  6.2 °C 36.8 °F /  2.7 °C 30.15in /  1020.9hPa NE 1.0mph /  1.6km/h 2.0mph /  3.2km/h 78% 0.00in /  0mm
06:18 43.1 °F /  6.2 °C 36.7 °F /  2.6 °C 30.15in /  1020.9hPa Calm     78% 0.00in /  0mm
06:23 42.7 °F /  5.9 °C 36.3 °F /  2.4 °C 30.15in /  1020.9hPa Calm     78% 0.00in /  0mm
06:28 42.2 °F /  5.7 °C 36.2 °F /  2.3 °C 30.15in /  1020.9hPa Calm     79% 0.00in /  0mm
06:33 42.2 °F /  5.7 °C 36.5 °F /  2.5 °C 30.15in /  1020.9hPa Calm   1.0mph /  1.6km/h 80% 0.00in /  0mm
06:38 42.2 °F /  5.7 °C 36.5 °F /  2.5 °C 30.15in /  1020.9hPa Calm     80% 0.00in /  0mm
06:43 42.0 °F /  5.6 °C 36.3 °F /  2.4 °C 30.15in /  1020.9hPa Calm     80% 0.00in /  0mm
06:48 41.9 °F /  5.5 °C 36.2 °F /  2.3 °C 30.15in /  1020.9hPa Calm     80% 0.00in /  0mm
06:54 42.2 °F /  5.7 °C 36.2 °F /  2.3 °C 30.15in /  1020.9hPa Calm     79% 0.00in /  0mm
06:59 42.7 °F /  5.9 °C 36.3 °F /  2.4 °C 30.15in /  1020.9hPa East 1.0mph /  1.6km/h 2.0mph /  3.2km/h 78% 0.00in /  0mm
07:04 43.3 °F /  6.3 °C 36.3 °F /  2.4 °C 30.16in /  1021.2hPa North 1.0mph /  1.6km/h 1.0mph /  1.6km/h 76% 0.00in /  0mm
07:09 42.9 °F /  6.1 °C 36.2 °F /  2.3 °C 30.16in /  1021.2hPa NNW 1.0mph /  1.6km/h 1.0mph /  1.6km/h 77% 0.00in /  0mm
07:14 42.3 °F /  5.7 °C 35.9 °F /  2.2 °C 30.16in /  1021.2hPa Calm   1.0mph /  1.6km/h 78% 0.00in /  0mm
07:19 42.3 °F /  5.7 °C 36.3 °F /  2.4 °C 30.16in /  1021.2hPa Calm     79% 0.00in /  0mm
07:24 42.5 °F /  5.8 °C 36.1 °F /  2.3 °C 30.16in /  1021.2hPa NNW 1.0mph /  1.6km/h 1.0mph /  1.6km/h 78% 0.00in /  0mm
07:29 43.3 °F /  6.3 °C 36.9 °F /  2.7 °C 30.16in /  1021.2hPa NE 1.0mph /  1.6km/h 2.0mph /  3.2km/h 78% 0.00in /  0mm
07:34 44.8 °F /  7.1 °C 36.7 °F /  2.6 °C 30.16in /  1021.2hPa ENE 3.0mph /  4.8km/h 4.0mph /  6.4km/h 73% 0.00in /  0mm
07:39 46.1 °F /  7.8 °C 36.5 °F /  2.5 °C 30.16in /  1021.2hPa NE 3.0mph /  4.8km/h 6.0mph /  9.7km/h 69% 0.00in /  0mm
07:44 46.9 °F /  8.3 °C 36.5 °F /  2.5 °C 30.17in /  1021.6hPa NE 4.0mph /  6.4km/h 5.0mph /  8km/h 67% 0.00in /  0mm
07:49 47.3 °F /  8.5 °C 36.5 °F /  2.5 °C 30.17in /  1021.6hPa ENE 2.0mph /  3.2km/h 4.0mph /  6.4km/h 66% 0.00in /  0mm
07:54 47.5 °F /  8.6 °C 36.7 °F /  2.6 °C 30.17in /  1021.6hPa East 1.0mph /  1.6km/h 3.0mph /  4.8km/h 66% 0.00in /  0mm
07:59 48.0 °F /  8.9 °C 37.2 °F /  2.9 °C 30.17in /  1021.6hPa East 2.0mph /  3.2km/h 3.0mph /  4.8km/h 66% 0.00in /  0mm
08:04 48.5 °F /  9.2 °C 37.3 °F /  2.9 °C 30.18in /  1021.9hPa ENE 1.0mph /  1.6km/h 4.0mph /  6.4km/h 65% 0.00in /  0mm
08:09 48.5 °F /  9.2 °C 37.3 °F /  2.9 °C 30.18in /  1021.9hPa ENE 2.0mph /  3.2km/h 4.0mph /  6.4km/h 65% 0.00in /  0mm
08:14 48.1 °F /  8.9 °C 37.3 °F /  2.9 °C 30.18in /  1021.9hPa NE 1.0mph /  1.6km/h 3.0mph /  4.8km/h 66% 0.00in /  0mm
08:20 47.6 °F /  8.7 °C 37.2 °F /  2.9 °C 30.19in /  1022.2hPa NE 3.0mph /  4.8km/h 3.0mph /  4.8km/h 67% 0.00in /  0mm
08:25 47.7 °F /  8.7 °C 37.7 °F /  3.2 °C 30.18in /  1021.9hPa NE 2.0mph /  3.2km/h 4.0mph /  6.4km/h 68% 0.00in /  0mm
08:30 48.2 °F /  9 °C 37.8 °F /  3.2 °C 30.18in /  1021.9hPa ENE 1.0mph /  1.6km/h 3.0mph /  4.8km/h 67% 0.00in /  0mm
08:35 49.0 °F /  9.4 °C 37.8 °F /  3.2 °C 30.18in /  1021.9hPa NE 2.0mph /  3.2km/h 4.0mph /  6.4km/h 65% 0.00in /  0mm
08:40 49.8 °F /  9.9 °C 39.3 °F /  4.1 °C 30.18in /  1021.9hPa East 3.0mph /  4.8km/h 3.0mph /  4.8km/h 67% 0.00in /  0mm
08:45 50.5 °F /  10.3 °C 40.0 °F /  4.4 °C 30.18in /  1021.9hPa ENE 2.0mph /  3.2km/h 3.0mph /  4.8km/h 67% 0.00in /  0mm
08:50 51.2 °F /  10.7 °C 39.5 °F /  4.2 °C 30.18in /  1021.9hPa ENE 1.0mph /  1.6km/h 2.0mph /  3.2km/h 64% 0.00in /  0mm
08:55 51.7 °F /  10.9 °C 39.5 °F /  4.2 °C 30.18in /  1021.9hPa East 1.0mph /  1.6km/h 5.0mph /  8km/h 63% 0.00in /  0mm
09:00 52.2 °F /  11.2 °C 39.2 °F /  4 °C 30.18in /  1021.9hPa ENE 4.0mph /  6.4km/h 6.0mph /  9.7km/h 61% 0.00in /  0mm
09:05 52.7 °F /  11.5 °C 39.6 °F /  4.2 °C 30.17in /  1021.6hPa ENE 3.0mph /  4.8km/h 6.0mph /  9.7km/h 61% 0.00in /  0mm
09:10 53.2 °F /  11.8 °C 39.7 °F /  4.3 °C 30.17in /  1021.6hPa NE 2.0mph /  3.2km/h 5.0mph /  8km/h 60% 0.00in /  0mm
09:15 53.6 °F /  12 °C 40.1 °F /  4.5 °C 30.17in /  1021.6hPa ESE 3.0mph /  4.8km/h 7.0mph /  11.3km/h 60% 0.00in /  0mm
09:20 54.2 °F /  12.3 °C 40.2 °F /  4.6 °C 30.17in /  1021.6hPa ESE 2.0mph /  3.2km/h 5.0mph /  8km/h 59% 0.00in /  0mm
09:25 54.8 °F /  12.7 °C 40.3 °F /  4.6 °C 30.17in /  1021.6hPa East 4.0mph /  6.4km/h 7.0mph /  11.3km/h 58% 0.00in /  0mm
09:31 55.3 °F /  12.9 °C 39.9 °F /  4.4 °C 30.17in /  1021.6hPa East 3.0mph /  4.8km/h 6.0mph /  9.7km/h 56% 0.00in /  0mm
09:36 55.6 °F /  13.1 °C 40.2 °F /  4.6 °C 30.18in /  1021.9hPa East 3.0mph /  4.8km/h 6.0mph /  9.7km/h 56% 0.00in /  0mm
09:41 55.9 °F /  13.3 °C 40.0 °F /  4.4 °C 30.18in /  1021.9hPa ENE 5.0mph /  8km/h 8.0mph /  12.9km/h 55% 0.00in /  0mm
09:46 56.2 °F /  13.4 °C 39.8 °F /  4.3 °C 30.18in /  1021.9hPa East 4.0mph /  6.4km/h 7.0mph /  11.3km/h 54% 0.00in /  0mm
09:51 56.5 °F /  13.6 °C 39.6 °F /  4.2 °C 30.18in /  1021.9hPa East 5.0mph /  8km/h 8.0mph /  12.9km/h 53% 0.00in /  0mm
09:56 56.8 °F /  13.8 °C 40.3 °F /  4.6 °C 30.18in /  1021.9hPa East 4.0mph /  6.4km/h 8.0mph /  12.9km/h 54% 0.00in /  0mm
10:01 57.3 °F /  14.1 °C 40.8 °F /  4.9 °C 30.18in /  1021.9hPa ENE 3.0mph /  4.8km/h 10.0mph /  16.1km/h 54% 0.00in /  0mm
10:06 58.1 °F /  14.5 °C 41.6 °F /  5.3 °C 30.18in /  1021.9hPa ESE 2.0mph /  3.2km/h 5.0mph /  8km/h 54% 0.00in /  0mm
10:11 58.8 °F /  14.9 °C 42.2 °F /  5.7 °C 30.18in /  1021.9hPa ESE 2.0mph /  3.2km/h 5.0mph /  8km/h 54% 0.00in /  0mm
10:15 59.2 °F /  15.1 °C 40.6 °F /  4.8 °C 30.18in /  1021.9hPa East 5.0mph /  8km/h 8.0mph /  12.9km/h 50% 0.00in /  0mm
10:18 59.3 °F /  15.2 °C 42.2 °F /  5.7 °C 30.18in /  1021.9hPa ESE 1.0mph /  1.6km/h 8.0mph /  12.9km/h 53% 0.00in /  0mm
10:23 59.7 °F /  15.4 °C 42.6 °F /  5.9 °C 30.18in /  1021.9hPa East 7.0mph /  11.3km/h 7.0mph /  11.3km/h 53% 0.00in /  0mm
10:28 59.6 °F /  15.3 °C 41.0 °F /  5 °C 30.18in /  1021.9hPa ENE 6.0mph /  9.7km/h 8.0mph /  12.9km/h 50% 0.00in /  0mm
10:33 59.6 °F /  15.3 °C 39.9 °F /  4.4 °C 30.17in /  1021.6hPa East 4.0mph /  6.4km/h 8.0mph /  12.9km/h 48% 0.00in /  0mm
10:38 59.9 °F /  15.5 °C 40.7 °F /  4.8 °C 30.18in /  1021.9hPa ESE 4.0mph /  6.4km/h 9.0mph /  14.5km/h 49% 0.00in /  0mm
10:43 60.2 °F /  15.7 °C 41.5 °F /  5.3 °C 30.18in /  1021.9hPa SSE 4.0mph /  6.4km/h 8.0mph /  12.9km/h 50% 0.00in /  0mm
10:48 60.2 °F /  15.7 °C 40.5 °F /  4.7 °C 30.17in /  1021.6hPa ESE 8.0mph /  12.9km/h 9.0mph /  14.5km/h 48% 0.00in /  0mm
10:54 60.5 °F /  15.8 °C 41.3 °F /  5.2 °C 30.17in /  1021.6hPa ESE 8.0mph /  12.9km/h 8.0mph /  12.9km/h 49% 0.00in /  0mm
10:59 60.6 °F /  15.9 °C 41.9 °F /  5.5 °C 30.17in /  1021.6hPa SE 6.0mph /  9.7km/h 12.0mph /  19.3km/h 50% 0.00in /  0mm
11:04 61.2 °F /  16.2 °C 42.4 °F /  5.8 °C 30.17in /  1021.6hPa East 9.0mph /  14.5km/h 11.0mph /  17.7km/h 50% 0.00in /  0mm
11:09 61.1 °F /  16.2 °C 40.2 °F /  4.6 °C 30.17in /  1021.6hPa ENE 5.0mph /  8km/h 10.0mph /  16.1km/h 46% 0.00in /  0mm
11:14 61.3 °F /  16.3 °C 40.9 °F /  4.9 °C 30.17in /  1021.6hPa SE 7.0mph /  11.3km/h 9.0mph /  14.5km/h 47% 0.00in /  0mm
11:19 61.6 °F /  16.4 °C 38.3 °F /  3.5 °C 30.17in /  1021.6hPa East 6.0mph /  9.7km/h 10.0mph /  16.1km/h 42% 0.00in /  0mm
11:24 61.9 °F /  16.6 °C 39.8 °F /  4.3 °C 30.17in /  1021.6hPa SE 5.0mph /  8km/h 8.0mph /  12.9km/h 44% 0.00in /  0mm
11:29 62.0 °F /  16.7 °C 40.4 °F /  4.7 °C 30.17in /  1021.6hPa SE 7.0mph /  11.3km/h 10.0mph /  16.1km/h 45% 0.00in /  0mm
11:34 62.2 °F /  16.8 °C 38.2 °F /  3.4 °C 30.17in /  1021.6hPa East 7.0mph /  11.3km/h 7.0mph /  11.3km/h 41% 0.00in /  0mm
11:39 62.2 °F /  16.8 °C 39.5 °F /  4.2 °C 30.18in /  1021.9hPa ENE 2.0mph /  3.2km/h 9.0mph /  14.5km/h 43% 0.00in /  0mm
11:44 62.4 °F /  16.9 °C 39.6 °F /  4.2 °C 30.17in /  1021.6hPa East 3.0mph /  4.8km/h 7.0mph /  11.3km/h 43% 0.00in /  0mm
11:49 62.9 °F /  17.2 °C 40.1 °F /  4.5 °C 30.18in /  1021.9hPa ESE 8.0mph /  12.9km/h 10.0mph /  16.1km/h 43% 0.00in /  0mm
11:54 63.0 °F /  17.2 °C 39.0 °F /  3.9 °C 30.18in /  1021.9hPa SSE 2.0mph /  3.2km/h 8.0mph /  12.9km/h 41% 0.00in /  0mm
11:59 63.5 °F /  17.5 °C 38.8 °F /  3.8 °C 30.18in /  1021.9hPa SE 6.0mph /  9.7km/h 10.0mph /  16.1km/h 40% 0.00in /  0mm
12:04 63.7 °F /  17.6 °C 39.6 °F /  4.2 °C 30.18in /  1021.9hPa SW 3.0mph /  4.8km/h 7.0mph /  11.3km/h 41% 0.00in /  0mm
12:10 63.8 °F /  17.7 °C 39.0 °F /  3.9 °C 30.19in /  1022.2hPa ENE 4.0mph /  6.4km/h 7.0mph /  11.3km/h 40% 0.00in /  0mm
12:15 64.0 °F /  17.8 °C 40.5 °F /  4.7 °C 30.19in /  1022.2hPa SE 3.0mph /  4.8km/h 5.0mph /  8km/h 42% 0.00in /  0mm
12:18 64.2 °F /  17.9 °C 36.7 °F /  2.6 °C 30.19in /  1022.2hPa SSE 2.0mph /  3.2km/h 6.0mph /  9.7km/h 36% 0.00in /  0mm
12:23 64.8 °F /  18.2 °C 39.9 °F /  4.4 °C 30.19in /  1022.2hPa SE 1.0mph /  1.6km/h 3.0mph /  4.8km/h 40% 0.00in /  0mm
12:28 64.7 °F /  18.2 °C 39.2 °F /  4 °C 30.19in /  1022.2hPa East 4.0mph /  6.4km/h 5.0mph /  8km/h 39% 0.00in /  0mm
12:33 64.4 °F /  18 °C 38.9 °F /  3.8 °C 30.18in /  1021.9hPa East 3.0mph /  4.8km/h 3.0mph /  4.8km/h 39% 0.00in /  0mm
12:38 64.3 °F /  17.9 °C 38.8 °F /  3.8 °C 30.18in /  1021.9hPa Calm   2.0mph /  3.2km/h 39% 0.00in /  0mm
12:43 64.7 °F /  18.2 °C 40.5 °F /  4.7 °C 30.18in /  1021.9hPa East 1.0mph /  1.6km/h 4.0mph /  6.4km/h 41% 0.00in /  0mm
12:48 65.3 °F /  18.5 °C 42.2 °F /  5.7 °C 30.17in /  1021.6hPa East 1.0mph /  1.6km/h 2.0mph /  3.2km/h 43% 0.00in /  0mm
12:53 65.6 °F /  18.7 °C 40.0 °F /  4.4 °C 30.17in /  1021.6hPa ESE 4.0mph /  6.4km/h 6.0mph /  9.7km/h 39% 0.00in /  0mm
12:58 65.6 °F /  18.7 °C 41.3 °F /  5.2 °C 30.17in /  1021.6hPa SSW 4.0mph /  6.4km/h 5.0mph /  8km/h 41% 0.00in /  0mm
13:03 65.9 °F /  18.8 °C 39.6 °F /  4.2 °C 30.17in /  1021.6hPa ESE 1.0mph /  1.6km/h 3.0mph /  4.8km/h 38% 0.00in /  0mm
13:08 65.9 °F /  18.8 °C 40.3 °F /  4.6 °C 30.17in /  1021.6hPa SE 5.0mph /  8km/h 9.0mph /  14.5km/h 39% 0.00in /  0mm
13:13 66.4 °F /  19.1 °C 41.4 °F /  5.2 °C 30.17in /  1021.6hPa ENE 2.0mph /  3.2km/h 3.0mph /  4.8km/h 40% 0.00in /  0mm
13:18 66.7 °F /  19.3 °C 40.3 °F /  4.6 °C 30.17in /  1021.6hPa ESE 2.0mph /  3.2km/h 7.0mph /  11.3km/h 38% 0.00in /  0mm
13:23 67.1 °F /  19.5 °C 40.0 °F /  4.4 °C 30.17in /  1021.6hPa ENE 3.0mph /  4.8km/h 4.0mph /  6.4km/h 37% 0.00in /  0mm
13:28 67.3 °F /  19.6 °C 38.7 °F /  3.7 °C 30.17in /  1021.6hPa SW 8.0mph /  12.9km/h 11.0mph /  17.7km/h 35% 0.00in /  0mm
13:33 67.5 °F /  19.7 °C 41.0 °F /  5 °C 30.17in /  1021.6hPa SE 5.0mph /  8km/h 7.0mph /  11.3km/h 38% 0.00in /  0mm
13:38 67.9 °F /  19.9 °C 38.5 °F /  3.6 °C 30.17in /  1021.6hPa SSE 4.0mph /  6.4km/h 6.0mph /  9.7km/h 34% 0.00in /  0mm
13:43 67.6 °F /  19.8 °C 40.4 °F /  4.7 °C 30.16in /  1021.2hPa WSW 1.0mph /  1.6km/h 8.0mph /  12.9km/h 37% 0.00in /  0mm
13:48 68.2 °F /  20.1 °C 41.7 °F /  5.4 °C 30.16in /  1021.2hPa SSE 6.0mph /  9.7km/h 6.0mph /  9.7km/h 38% 0.00in /  0mm
13:53 68.0 °F /  20 °C 39.3 °F /  4.1 °C 30.16in /  1021.2hPa ENE 2.0mph /  3.2km/h 8.0mph /  12.9km/h 35% 0.00in /  0mm
13:58 68.1 °F /  20.1 °C 40.2 °F /  4.6 °C 30.16in /  1021.2hPa ESE 5.0mph /  8km/h 6.0mph /  9.7km/h 36% 0.00in /  0mm
14:03 67.9 °F /  19.9 °C 38.5 °F /  3.6 °C 30.16in /  1021.2hPa ESE 2.0mph /  3.2km/h 6.0mph /  9.7km/h 34% 0.00in /  0mm
14:08 68.3 °F /  20.2 °C 40.3 °F /  4.6 °C 30.16in /  1021.2hPa SE 2.0mph /  3.2km/h 3.0mph /  4.8km/h 36% 0.00in /  0mm
14:13 69.0 °F /  20.6 °C 41.0 °F /  5 °C 30.16in /  1021.2hPa ESE 3.0mph /  4.8km/h 6.0mph /  9.7km/h 36% 0.00in /  0mm
14:18 69.4 °F /  20.8 °C 41.3 °F /  5.2 °C 30.16in /  1021.2hPa SW 3.0mph /  4.8km/h 5.0mph /  8km/h 36% 0.00in /  0mm
14:24 69.4 °F /  20.8 °C 39.8 °F /  4.3 °C 30.16in /  1021.2hPa Calm   4.0mph /  6.4km/h 34% 0.00in /  0mm
14:29 69.3 °F /  20.7 °C 39.8 °F /  4.3 °C 30.16in /  1021.2hPa SE 8.0mph /  12.9km/h 10.0mph /  16.1km/h 34% 0.00in /  0mm
14:34 69.4 °F /  20.8 °C 42.0 °F /  5.6 °C 30.15in /  1020.9hPa SSE 2.0mph /  3.2km/h 5.0mph /  8km/h 37% 0.00in /  0mm
14:39 69.8 °F /  21 °C 40.2 °F /  4.6 °C 30.15in /  1020.9hPa SSW 4.0mph /  6.4km/h 8.0mph /  12.9km/h 34% 0.00in /  0mm
14:44 69.8 °F /  21 °C 37.8 °F /  3.2 °C 30.15in /  1020.9hPa ENE 4.0mph /  6.4km/h 7.0mph /  11.3km/h 31% 0.00in /  0mm
14:49 69.9 °F /  21.1 °C 41.0 °F /  5 °C 30.15in /  1020.9hPa SSE 6.0mph /  9.7km/h 6.0mph /  9.7km/h 35% 0.00in /  0mm
14:54 69.9 °F /  21.1 °C 37.1 °F /  2.8 °C 30.15in /  1020.9hPa WSW 3.0mph /  4.8km/h 5.0mph /  8km/h 30% 0.00in /  0mm
15:00 70.3 °F /  21.3 °C 39.9 °F /  4.4 °C 30.14in /  1020.5hPa East 6.0mph /  9.7km/h 6.0mph /  9.7km/h 33% 0.00in /  0mm
15:05 70.0 °F /  21.1 °C 39.6 °F /  4.2 °C 30.14in /  1020.5hPa SE 1.0mph /  1.6km/h 8.0mph /  12.9km/h 33% 0.00in /  0mm
15:10 70.1 °F /  21.2 °C 38.9 °F /  3.8 °C 30.14in /  1020.5hPa ESE 5.0mph /  8km/h 8.0mph /  12.9km/h 32% 0.00in /  0mm
15:15 70.1 °F /  21.2 °C 39.7 °F /  4.3 °C 30.13in /  1020.2hPa SE 4.0mph /  6.4km/h 9.0mph /  14.5km/h 33% 0.00in /  0mm
15:20 70.3 °F /  21.3 °C 41.4 °F /  5.2 °C 30.14in /  1020.5hPa SW 5.0mph /  8km/h 8.0mph /  12.9km/h 35% 0.00in /  0mm
15:25 70.5 °F /  21.4 °C 39.2 °F /  4 °C 30.13in /  1020.2hPa East 2.0mph /  3.2km/h 7.0mph /  11.3km/h 32% 0.00in /  0mm
15:30 70.5 °F /  21.4 °C 42.3 °F /  5.7 °C 30.12in /  1019.9hPa SSE 6.0mph /  9.7km/h 7.0mph /  11.3km/h 36% 0.00in /  0mm
15:35 70.2 °F /  21.2 °C 39.8 °F /  4.3 °C 30.13in /  1020.2hPa SE 3.0mph /  4.8km/h 7.0mph /  11.3km/h 33% 0.00in /  0mm
15:40 70.3 °F /  21.3 °C 42.1 °F /  5.6 °C 30.13in /  1020.2hPa SE 5.0mph /  8km/h 8.0mph /  12.9km/h 36% 0.00in /  0mm
15:41 70.4 °F /  21.3 °C 42.2 °F /  5.7 °C 30.12in /  1019.9hPa SE 6.0mph /  9.7km/h 8.0mph /  12.9km/h 36% 0.00in /  0mm
15:46 70.7 °F /  21.5 °C 42.5 °F /  5.8 °C 30.12in /  1019.9hPa SSE 4.0mph /  6.4km/h 6.0mph /  9.7km/h 36% 0.00in /  0mm
15:51 71.2 °F /  21.8 °C 44.3 °F /  6.8 °C 30.12in /  1019.9hPa South 4.0mph /  6.4km/h 10.0mph /  16.1km/h 38% 0.00in /  0mm
15:56 71.3 °F /  21.8 °C 41.5 °F /  5.3 °C 30.12in /  1019.9hPa ESE 4.0mph /  6.4km/h 11.0mph /  17.7km/h 34% 0.00in /  0mm
16:01 71.4 °F /  21.9 °C 43.1 °F /  6.2 °C 30.12in /  1019.9hPa ESE 8.0mph /  12.9km/h 8.0mph /  12.9km/h 36% 0.00in /  0mm
16:06 71.3 °F /  21.8 °C 43.0 °F /  6.1 °C 30.12in /  1019.9hPa East 5.0mph /  8km/h 6.0mph /  9.7km/h 36% 0.00in /  0mm
16:11 71.4 °F /  21.9 °C 40.8 °F /  4.9 °C 30.12in /  1019.9hPa West 2.0mph /  3.2km/h 8.0mph /  12.9km/h 33% 0.00in /  0mm
16:16 71.6 °F /  22 °C 42.5 °F /  5.8 °C 30.12in /  1019.9hPa SE 4.0mph /  6.4km/h 8.0mph /  12.9km/h 35% 0.00in /  0mm
16:21 71.7 °F /  22.1 °C 40.3 °F /  4.6 °C 30.12in /  1019.9hPa SSE 5.0mph /  8km/h 8.0mph /  12.9km/h 32% 0.00in /  0mm
16:26 72.1 °F /  22.3 °C 40.7 °F /  4.8 °C 30.12in /  1019.9hPa SSE 2.0mph /  3.2km/h 6.0mph /  9.7km/h 32% 0.00in /  0mm
16:31 72.2 °F /  22.3 °C 40.7 °F /  4.8 °C 30.12in /  1019.9hPa East 4.0mph /  6.4km/h 5.0mph /  8km/h 32% 0.00in /  0mm
16:36 72.0 °F /  22.2 °C 42.1 °F /  5.6 °C 30.12in /  1019.9hPa SSE 7.0mph /  11.3km/h 9.0mph /  14.5km/h 34% 0.00in /  0mm
16:42 72.0 °F /  22.2 °C 41.3 °F /  5.2 °C 30.12in /  1019.9hPa SSE 2.0mph /  3.2km/h 6.0mph /  9.7km/h 33% 0.00in /  0mm
16:47 71.9 °F /  22.2 °C 42.0 °F /  5.6 °C 30.12in /  1019.9hPa SE 5.0mph /  8km/h 8.0mph /  12.9km/h 34% 0.00in /  0mm
16:52 71.5 °F /  21.9 °C 40.1 °F /  4.5 °C 30.12in /  1019.9hPa SSW 2.0mph /  3.2km/h 3.0mph /  4.8km/h 32% 0.00in /  0mm
16:57 71.5 °F /  21.9 °C 40.1 °F /  4.5 °C 30.12in /  1019.9hPa SE 2.0mph /  3.2km/h 5.0mph /  8km/h 32% 0.00in /  0mm
17:02 71.8 °F /  22.1 °C 42.7 °F /  5.9 °C 30.12in /  1019.9hPa SE 5.0mph /  8km/h 6.0mph /  9.7km/h 35% 0.00in /  0mm
17:07 72.0 °F /  22.2 °C 41.3 °F /  5.2 °C 30.11in /  1019.5hPa South 6.0mph /  9.7km/h 7.0mph /  11.3km/h 33% 0.00in /  0mm
17:12 72.6 °F /  22.6 °C 41.9 °F /  5.5 °C 30.11in /  1019.5hPa SSE 6.0mph /  9.7km/h 6.0mph /  9.7km/h 33% 0.00in /  0mm
17:17 72.3 °F /  22.4 °C 42.4 °F /  5.8 °C 30.11in /  1019.5hPa South 3.0mph /  4.8km/h 6.0mph /  9.7km/h 34% 0.00in /  0mm
17:22 72.3 °F /  22.4 °C 41.6 °F /  5.3 °C 30.11in /  1019.5hPa SSE 2.0mph /  3.2km/h 5.0mph /  8km/h 33% 0.00in /  0mm
17:27 72.4 °F /  22.4 °C 42.5 °F /  5.8 °C 30.11in /  1019.5hPa SE 4.0mph /  6.4km/h 8.0mph /  12.9km/h 34% 0.00in /  0mm
17:32 72.2 °F /  22.3 °C 43.1 °F /  6.2 °C 30.11in /  1019.5hPa SSE 1.0mph /  1.6km/h 6.0mph /  9.7km/h 35% 0.00in /  0mm
17:37 72.5 °F /  22.5 °C 42.6 °F /  5.9 °C 30.11in /  1019.5hPa SE 5.0mph /  8km/h 6.0mph /  9.7km/h 34% 0.00in /  0mm
17:42 72.3 °F /  22.4 °C 41.6 °F /  5.3 °C 30.10in /  1019.2hPa SSE 4.0mph /  6.4km/h 5.0mph /  8km/h 33% 0.00in /  0mm
17:47 72.1 °F /  22.3 °C 41.4 °F /  5.2 °C 30.10in /  1019.2hPa SSE 4.0mph /  6.4km/h 7.0mph /  11.3km/h 33% 0.00in /  0mm
17:52 71.9 °F /  22.2 °C 42.0 °F /  5.6 °C 30.10in /  1019.2hPa SE 5.0mph /  8km/h 6.0mph /  9.7km/h 34% 0.00in /  0mm
17:58 71.6 °F /  22 °C 41.8 °F /  5.4 °C 30.10in /  1019.2hPa SE 4.0mph /  6.4km/h 7.0mph /  11.3km/h 34% 0.00in /  0mm
18:03 71.6 °F /  22 °C 40.2 °F /  4.6 °C 30.10in /  1019.2hPa SSE 3.0mph /  4.8km/h 8.0mph /  12.9km/h 32% 0.00in /  0mm
18:08 71.4 °F /  21.9 °C 40.8 °F /  4.9 °C 30.10in /  1019.2hPa SSE 6.0mph /  9.7km/h 6.0mph /  9.7km/h 33% 0.00in /  0mm
18:13 70.9 °F /  21.6 °C 41.2 °F /  5.1 °C 30.10in /  1019.2hPa SE 5.0mph /  8km/h 6.0mph /  9.7km/h 34% 0.00in /  0mm
18:18 70.7 °F /  21.5 °C 40.2 °F /  4.6 °C 30.10in /  1019.2hPa SSE 3.0mph /  4.8km/h 5.0mph /  8km/h 33% 0.00in /  0mm
18:23 70.8 °F /  21.6 °C 41.1 °F /  5.1 °C 30.10in /  1019.2hPa SSE 4.0mph /  6.4km/h 5.0mph /  8km/h 34% 0.00in /  0mm
18:28 70.8 °F /  21.6 °C 41.1 °F /  5.1 °C 30.09in /  1018.8hPa SSE 5.0mph /  8km/h 6.0mph /  9.7km/h 34% 0.00in /  0mm
18:33 70.9 °F /  21.6 °C 39.6 °F /  4.2 °C 30.09in /  1018.8hPa SE 6.0mph /  9.7km/h 8.0mph /  12.9km/h 32% 0.00in /  0mm
18:38 70.9 °F /  21.6 °C 39.6 °F /  4.2 °C 30.10in /  1019.2hPa SSE 6.0mph /  9.7km/h 6.0mph /  9.7km/h 32% 0.00in /  0mm
18:43 70.8 °F /  21.6 °C 41.1 °F /  5.1 °C 30.09in /  1018.8hPa South 4.0mph /  6.4km/h 7.0mph /  11.3km/h 34% 0.00in /  0mm
18:48 70.7 °F /  21.5 °C 41.0 °F /  5 °C 30.10in /  1019.2hPa SE 3.0mph /  4.8km/h 6.0mph /  9.7km/h 34% 0.00in /  0mm
18:53 70.7 °F /  21.5 °C 42.5 °F /  5.8 °C 30.09in /  1018.8hPa SE 4.0mph /  6.4km/h 4.0mph /  6.4km/h 36% 0.00in /  0mm
18:58 70.4 °F /  21.3 °C 40.0 °F /  4.4 °C 30.09in /  1018.8hPa SSE 4.0mph /  6.4km/h 5.0mph /  8km/h 33% 0.00in /  0mm
19:03 70.1 °F /  21.2 °C 41.9 °F /  5.5 °C 30.09in /  1018.8hPa SE 3.0mph /  4.8km/h 4.0mph /  6.4km/h 36% 0.00in /  0mm
19:08 69.9 °F /  21.1 °C 42.5 °F /  5.8 °C 30.09in /  1018.8hPa SE 2.0mph /  3.2km/h 3.0mph /  4.8km/h 37% 0.00in /  0mm
19:13 69.8 °F /  21 °C 42.4 °F /  5.8 °C 30.10in /  1019.2hPa ESE 2.0mph /  3.2km/h 3.0mph /  4.8km/h 37% 0.00in /  0mm
19:18 69.7 °F /  20.9 °C 43.0 °F /  6.1 °C 30.10in /  1019.2hPa SE 2.0mph /  3.2km/h 2.0mph /  3.2km/h 38% 0.00in /  0mm
19:23 69.6 °F /  20.9 °C 44.2 °F /  6.8 °C 30.10in /  1019.2hPa SE 2.0mph /  3.2km/h 2.0mph /  3.2km/h 40% 0.00in /  0mm
19:28 69.4 °F /  20.8 °C 44.7 °F /  7.1 °C 30.10in /  1019.2hPa ESE 1.0mph /  1.6km/h 2.0mph /  3.2km/h 41% 0.00in /  0mm
19:34 69.4 °F /  20.8 °C 44.1 °F /  6.7 °C 30.10in /  1019.2hPa ESE 1.0mph /  1.6km/h 1.0mph /  1.6km/h 40% 0.00in /  0mm
19:39 69.5 °F /  20.8 °C 44.8 °F /  7.1 °C 30.10in /  1019.2hPa ESE 1.0mph /  1.6km/h 1.0mph /  1.6km/h 41% 0.00in /  0mm
19:44 69.5 °F /  20.8 °C 44.8 °F /  7.1 °C 30.10in /  1019.2hPa Calm   1.0mph /  1.6km/h 41% 0.00in /  0mm
19:49 69.5 °F /  20.8 °C 46.0 °F /  7.8 °C 30.10in /  1019.2hPa ESE 1.0mph /  1.6km/h 1.0mph /  1.6km/h 43% 0.00in /  0mm
19:55 69.1 °F /  20.6 °C 45.7 °F /  7.6 °C 30.10in /  1019.2hPa ESE 1.0mph /  1.6km/h 2.0mph /  3.2km/h 43% 0.00in /  0mm
20:00 68.5 °F /  20.3 °C 46.3 °F /  7.9 °C 30.10in /  1019.2hPa SE 1.0mph /  1.6km/h 2.0mph /  3.2km/h 45% 0.00in /  0mm
20:05 68.0 °F /  20 °C 45.3 °F /  7.4 °C 30.10in /  1019.2hPa SE 2.0mph /  3.2km/h 2.0mph /  3.2km/h 44% 0.00in /  0mm
20:10 67.5 °F /  19.7 °C 46.0 °F /  7.8 °C 30.10in /  1019.2hPa SE 1.0mph /  1.6km/h 2.0mph /  3.2km/h 46% 0.00in /  0mm
20:15 67.0 °F /  19.4 °C 45.0 °F /  7.2 °C 30.11in /  1019.5hPa SE 1.0mph /  1.6km/h 1.0mph /  1.6km/h 45% 0.00in /  0mm
20:20 66.7 °F /  19.3 °C 44.7 °F /  7.1 °C 30.10in /  1019.2hPa ESE 1.0mph /  1.6km/h 2.0mph /  3.2km/h 45% 0.00in /  0mm
20:25 66.3 °F /  19.1 °C 46.0 °F /  7.8 °C 30.11in /  1019.5hPa ESE 1.0mph /  1.6km/h 1.0mph /  1.6km/h 48% 0.00in /  0mm
20:30 65.7 °F /  18.7 °C 46.0 °F /  7.8 °C 30.11in /  1019.5hPa ESE 1.0mph /  1.6km/h 1.0mph /  1.6km/h 49% 0.00in /  0mm
20:35 65.1 °F /  18.4 °C 45.5 °F /  7.5 °C 30.10in /  1019.2hPa ESE 1.0mph /  1.6km/h 1.0mph /  1.6km/h 49% 0.00in /  0mm
20:36 65.0 °F /  18.3 °C 44.8 °F /  7.1 °C 30.10in /  1019.2hPa Calm   1.0mph /  1.6km/h 48% 0.00in /  0mm
20:41 64.7 °F /  18.2 °C 44.6 °F /  7 °C 30.10in /  1019.2hPa ESE 1.0mph /  1.6km/h 1.0mph /  1.6km/h 48% 0.00in /  0mm
20:46 64.5 °F /  18.1 °C 44.4 °F /  6.9 °C 30.10in /  1019.2hPa ESE 1.0mph /  1.6km/h 1.0mph /  1.6km/h 48% 0.00in /  0mm
20:51 64.5 °F /  18.1 °C 44.9 °F /  7.2 °C 30.10in /  1019.2hPa ESE 2.0mph /  3.2km/h 2.0mph /  3.2km/h 49% 0.00in /  0mm
20:56 64.0 °F /  17.8 °C 45.0 °F /  7.2 °C 30.10in /  1019.2hPa ESE 2.0mph /  3.2km/h 2.0mph /  3.2km/h 50% 0.00in /  0mm
21:01 63.7 °F /  17.6 °C 44.7 °F /  7.1 °C 30.10in /  1019.2hPa ESE 2.0mph /  3.2km/h 3.0mph /  4.8km/h 50% 0.00in /  0mm
21:06 63.5 °F /  17.5 °C 44.5 °F /  6.9 °C 30.10in /  1019.2hPa ESE 2.0mph /  3.2km/h 2.0mph /  3.2km/h 50% 0.00in /  0mm
21:12 63.5 °F /  17.5 °C 44.5 °F /  6.9 °C 30.10in /  1019.2hPa ESE 2.0mph /  3.2km/h 2.0mph /  3.2km/h 50% 0.00in /  0mm
21:17 63.2 °F /  17.3 °C 44.8 °F /  7.1 °C 30.11in /  1019.5hPa ESE 1.0mph /  1.6km/h 2.0mph /  3.2km/h 51% 0.00in /  0mm
21:22 63.1 °F /  17.3 °C 44.2 °F /  6.8 °C 30.11in /  1019.5hPa ESE 1.0mph /  1.6km/h 1.0mph /  1.6km/h 50% 0.00in /  0mm
21:27 63.1 °F /  17.3 °C 44.2 °F /  6.8 °C 30.11in /  1019.5hPa Calm     50% 0.00in /  0mm
21:32 62.9 °F /  17.2 °C 43.5 °F /  6.4 °C 30.12in /  1019.9hPa Calm   1.0mph /  1.6km/h 49% 0.00in /  0mm
21:37 63.0 °F /  17.2 °C 43.6 °F /  6.4 °C 30.12in /  1019.9hPa ESE 1.0mph /  1.6km/h 1.0mph /  1.6km/h 49% 0.00in /  0mm
21:42 63.0 °F /  17.2 °C 43.0 °F /  6.1 °C 30.12in /  1019.9hPa Calm     48% 0.00in /  0mm
21:47 62.6 °F /  17 °C 43.2 °F /  6.2 °C 30.13in /  1020.2hPa Calm     49% 0.00in /  0mm
21:52 62.1 °F /  16.7 °C 42.7 °F /  5.9 °C 30.13in /  1020.2hPa Calm     49% 0.00in /  0mm
21:57 61.4 °F /  16.3 °C 42.6 °F /  5.9 °C 30.13in /  1020.2hPa Calm     50% 0.00in /  0mm
22:02 61.0 °F /  16.1 °C 42.8 °F /  6 °C 30.13in /  1020.2hPa Calm   1.0mph /  1.6km/h 51% 0.00in /  0mm
22:07 61.5 °F /  16.4 °C 43.2 °F /  6.2 °C 30.13in /  1020.2hPa Calm   1.0mph /  1.6km/h 51% 0.00in /  0mm
22:12 61.3 °F /  16.3 °C 43.0 °F /  6.1 °C 30.14in /  1020.5hPa Calm     51% 0.00in /  0mm
22:17 61.2 °F /  16.2 °C 43.5 °F /  6.4 °C 30.14in /  1020.5hPa Calm     52% 0.00in /  0mm
22:22 61.1 °F /  16.2 °C 43.4 °F /  6.3 °C 30.14in /  1020.5hPa Calm     52% 0.00in /  0mm
22:27 61.2 °F /  16.2 °C 44.0 °F /  6.7 °C 30.14in /  1020.5hPa ESE 1.0mph /  1.6km/h 1.0mph /  1.6km/h 53% 0.00in /  0mm
22:32 61.5 °F /  16.4 °C 44.2 °F /  6.8 °C 30.14in /  1020.5hPa ESE 1.0mph /  1.6km/h 1.0mph /  1.6km/h 53% 0.00in /  0mm
22:37 61.7 °F /  16.5 °C 44.9 °F /  7.2 °C 30.14in /  1020.5hPa ESE 2.0mph /  3.2km/h 2.0mph /  3.2km/h 54% 0.00in /  0mm
22:42 62.2 °F /  16.8 °C 44.9 °F /  7.2 °C 30.14in /  1020.5hPa ESE 2.0mph /  3.2km/h 2.0mph /  3.2km/h 53% 0.00in /  0mm
22:47 62.4 °F /  16.9 °C 46.0 °F /  7.8 °C 30.14in /  1020.5hPa SE 1.0mph /  1.6km/h 1.0mph /  1.6km/h 55% 0.00in /  0mm
22:53 62.4 °F /  16.9 °C 45.5 °F /  7.5 °C 30.14in /  1020.5hPa ESE 2.0mph /  3.2km/h 3.0mph /  4.8km/h 54% 0.00in /  0mm
22:58 62.8 °F /  17.1 °C 45.9 °F /  7.7 °C 30.14in /  1020.5hPa ESE 1.0mph /  1.6km/h 3.0mph /  4.8km/h 54% 0.00in /  0mm
23:03 62.7 °F /  17.1 °C 45.8 °F /  7.7 °C 30.14in /  1020.5hPa SE 2.0mph /  3.2km/h 3.0mph /  4.8km/h 54% 0.00in /  0mm
23:08 62.8 °F /  17.1 °C 45.9 °F /  7.7 °C 30.14in /  1020.5hPa SE 1.0mph /  1.6km/h 4.0mph /  6.4km/h 54% 0.00in /  0mm
23:13 62.8 °F /  17.1 °C 46.4 °F /  8 °C 30.14in /  1020.5hPa SE 2.0mph /  3.2km/h 3.0mph /  4.8km/h 55% 0.00in /  0mm
23:18 62.8 °F /  17.1 °C 46.4 °F /  8 °C 30.14in /  1020.5hPa SE 4.0mph /  6.4km/h 4.0mph /  6.4km/h 55% 0.00in /  0mm
23:23 63.1 °F /  17.3 °C 46.2 °F /  7.9 °C 30.14in /  1020.5hPa SE 2.0mph /  3.2km/h 5.0mph /  8km/h 54% 0.00in /  0mm
23:28 63.2 °F /  17.3 °C 46.3 °F /  7.9 °C 30.14in /  1020.5hPa SE 5.0mph /  8km/h 5.0mph /  8km/h 54% 0.00in /  0mm
23:33 63.0 °F /  17.2 °C 46.6 °F /  8.1 °C 30.13in /  1020.2hPa ESE 4.0mph /  6.4km/h 6.0mph /  9.7km/h 55% 0.00in /  0mm
23:38 62.7 °F /  17.1 °C 46.8 °F /  8.2 °C 30.13in /  1020.2hPa SE 3.0mph /  4.8km/h 5.0mph /  8km/h 56% 0.00in /  0mm
23:43 62.4 °F /  16.9 °C 46.5 °F /  8.1 °C 30.13in /  1020.2hPa SE 4.0mph /  6.4km/h 5.0mph /  8km/h 56% 0.00in /  0mm
23:48 62.3 °F /  16.8 °C 46.9 °F /  8.3 °C 30.13in /  1020.2hPa ESE 3.0mph /  4.8km/h 5.0mph /  8km/h 57% 0.00in /  0mm
23:53 62.0 °F /  16.7 °C 46.6 °F /  8.1 °C 30.13in /  1020.2hPa SE 3.0mph /  4.8km/h 5.0mph /  8km/h 57% 0.00in /  0mm
23:58 61.8 °F /  16.6 °C 46.9 °F /  8.3 °C 30.13in /  1020.2hPa ESE 3.0mph /  4.8km/h 4.0mph /  6.4km/h 58% 0.00in /  0mm
Compliments of Weather Underground